sensor_id;sensor_type;location;lat;lon;timestamp;temperature;humidity
5286;DHT22;2665;53.112;7.358;2022-07-23T00:01:31;14.60;1.00
5286;DHT22;2665;53.112;7.358;2022-07-23T00:03:56;14.60;1.00
5286;DHT22;2665;53.112;7.358;2022-07-23T00:06:23;14.60;1.00
5286;DHT22;2665;53.112;7.358;2022-07-23T00:08:49;14.50;1.00
5286;DHT22;2665;53.112;7.358;2022-07-23T00:11:14;14.50;22.40
5286;DHT22;2665;53.112;7.358;2022-07-23T00:13:40;14.60;99.90
5286;DHT22;2665;53.112;7.358;2022-07-23T00:16:06;14.60;99.90
5286;DHT22;2665;53.112;7.358;2022-07-23T00:18:31;14.60;99.90
5286;DHT22;2665;53.112;7.358;2022-07-23T00:20:57;14.60;99.90
5286;DHT22;2665;53.112;7.358;2022-07-23T00:23:23;14.60;99.90
5286;DHT22;2665;53.112;7.358;2022-07-23T00:25:51;14.60;99.90
5286;DHT22;2665;53.112;7.358;2022-07-23T00:28:17;14.60;99.90
5286;DHT22;2665;53.112;7.358;2022-07-23T00:30:44;14.60;99.90
5286;DHT22;2665;53.112;7.358;2022-07-23T00:33:10;14.60;94.40
5286;DHT22;2665;53.112;7.358;2022-07-23T00:35:38;14.60;99.90
5286;DHT22;2665;53.112;7.358;2022-07-23T00:38:09;14.60;99.90
5286;DHT22;2665;53.112;7.358;2022-07-23T00:40:35;14.50;99.90
5286;DHT22;2665;53.112;7.358;2022-07-23T00:43:02;14.60;99.90
5286;DHT22;2665;53.112;7.358;2022-07-23T00:45:28;14.50;99.90
5286;DHT22;2665;53.112;7.358;2022-07-23T00:47:53;14.50;99.90
5286;DHT22;2665;53.112;7.358;2022-07-23T00:50:19;14.50;99.90
5286;DHT22;2665;53.112;7.358;2022-07-23T00:52:45;14.50;99.90
5286;DHT22;2665;53.112;7.358;2022-07-23T00:55:11;14.50;1.00
5286;DHT22;2665;53.112;7.358;2022-07-23T00:57:38;14.50;1.00
5286;DHT22;2665;53.112;7.358;2022-07-23T01:00:06;14.40;1.00
5286;DHT22;2665;53.112;7.358;2022-07-23T01:02:32;14.50;1.00
5286;DHT22;2665;53.112;7.358;2022-07-23T01:04:58;14.50;1.00
5286;DHT22;2665;53.112;7.358;2022-07-23T01:07:24;14.40;1.00
5286;DHT22;2665;53.112;7.358;2022-07-23T01:09:51;14.40;1.00
5286;DHT22;2665;53.112;7.358;2022-07-23T01:12:17;14.40;1.00
5286;DHT22;2665;53.112;7.358;2022-07-23T01:14:43;14.40;1.00
5286;DHT22;2665;53.112;7.358;2022-07-23T01:17:08;14.30;1.00
5286;DHT22;2665;53.112;7.358;2022-07-23T01:19:34;14.30;1.00
5286;DHT22;2665;53.112;7.358;2022-07-23T01:22:02;14.30;1.00
5286;DHT22;2665;53.112;7.358;2022-07-23T01:24:28;14.20;1.00
5286;DHT22;2665;53.112;7.358;2022-07-23T01:26:54;14.20;1.00
5286;DHT22;2665;53.112;7.358;2022-07-23T01:29:20;14.20;1.00
5286;DHT22;2665;53.112;7.358;2022-07-23T01:31:47;14.20;1.00
5286;DHT22;2665;53.112;7.358;2022-07-23T01:34:13;14.10;1.00
5286;DHT22;2665;53.112;7.358;2022-07-23T01:36:38;14.10;3.60
5286;DHT22;2665;53.112;7.358;2022-07-23T01:39:05;14.10;1.00
5286;DHT22;2665;53.112;7.358;2022-07-23T01:41:31;14.10;1.00
5286;DHT22;2665;53.112;7.358;2022-07-23T01:43:57;14.00;1.00
5286;DHT22;2665;53.112;7.358;2022-07-23T01:46:22;14.00;1.00
5286;DHT22;2665;53.112;7.358;2022-07-23T01:48:48;13.90;1.00
5286;DHT22;2665;53.112;7.358;2022-07-23T01:51:14;13.90;1.00
5286;DHT22;2665;53.112;7.358;2022-07-23T01:53:40;13.80;1.00
5286;DHT22;2665;53.112;7.358;2022-07-23T01:56:06;13.80;1.00
5286;DHT22;2665;53.112;7.358;2022-07-23T01:58:32;13.70;96.70
5286;DHT22;2665;53.112;7.358;2022-07-23T02:00:58;13.60;99.90
5286;DHT22;2665;53.112;7.358;2022-07-23T02:03:24;13.50;99.90
5286;DHT22;2665;53.112;7.358;2022-07-23T02:05:50;13.50;99.90
5286;DHT22;2665;53.112;7.358;2022-07-23T02:08:16;13.40;1.00
5286;DHT22;2665;53.112;7.358;2022-07-23T02:10:42;13.40;1.00
5286;DHT22;2665;53.112;7.358;2022-07-23T02:13:08;13.30;1.00
5286;DHT22;2665;53.112;7.358;2022-07-23T02:15:33;13.30;99.90
5286;DHT22;2665;53.112;7.358;2022-07-23T02:17:59;13.30;1.00
5286;DHT22;2665;53.112;7.358;2022-07-23T02:20:25;13.30;1.00
5286;DHT22;2665;53.112;7.358;2022-07-23T02:22:51;13.30;1.00
5286;DHT22;2665;53.112;7.358;2022-07-23T02:25:16;13.30;68.20
5286;DHT22;2665;53.112;7.358;2022-07-23T02:27:42;13.20;89.30
5286;DHT22;2665;53.112;7.358;2022-07-23T02:30:08;13.20;1.00
5286;DHT22;2665;53.112;7.358;2022-07-23T02:32:34;13.20;95.00
5286;DHT22;2665;53.112;7.358;2022-07-23T02:35:00;13.10;99.90
5286;DHT22;2665;53.112;7.358;2022-07-23T02:37:26;13.20;99.90
5286;DHT22;2665;53.112;7.358;2022-07-23T02:39:52;13.20;99.90
5286;DHT22;2665;53.112;7.358;2022-07-23T02:42:18;13.10;99.90
5286;DHT22;2665;53.112;7.358;2022-07-23T02:44:43;13.10;1.00
5286;DHT22;2665;53.112;7.358;2022-07-23T02:47:09;13.10;1.00
5286;DHT22;2665;53.112;7.358;2022-07-23T02:49:34;13.10;1.00
5286;DHT22;2665;53.112;7.358;2022-07-23T02:52:00;13.00;99.90
5286;DHT22;2665;53.112;7.358;2022-07-23T02:54:26;13.00;99.90
5286;DHT22;2665;53.112;7.358;2022-07-23T02:56:51;13.00;1.00
5286;DHT22;2665;53.112;7.358;2022-07-23T02:59:17;12.90;67.40
5286;DHT22;2665;53.112;7.358;2022-07-23T03:01:43;12.90;99.90
5286;DHT22;2665;53.112;7.358;2022-07-23T03:04:09;12.90;99.90
5286;DHT22;2665;53.112;7.358;2022-07-23T03:06:35;12.90;99.90
5286;DHT22;2665;53.112;7.358;2022-07-23T03:09:01;12.90;99.90
5286;DHT22;2665;53.112;7.358;2022-07-23T03:11:26;12.80;99.90
5286;DHT22;2665;53.112;7.358;2022-07-23T03:13:52;12.80;99.90
5286;DHT22;2665;53.112;7.358;2022-07-23T03:16:17;12.70;1.00
5286;DHT22;2665;53.112;7.358;2022-07-23T03:18:43;12.80;26.90
5286;DHT22;2665;53.112;7.358;2022-07-23T03:21:09;12.80;99.90
5286;DHT22;2665;53.112;7.358;2022-07-23T03:23:34;12.80;99.90
5286;DHT22;2665;53.112;7.358;2022-07-23T03:26:00;12.80;99.90
5286;DHT22;2665;53.112;7.358;2022-07-23T03:28:26;12.70;99.90
5286;DHT22;2665;53.112;7.358;2022-07-23T03:30:52;12.70;99.90
5286;DHT22;2665;53.112;7.358;2022-07-23T03:33:18;12.70;99.90
5286;DHT22;2665;53.112;7.358;2022-07-23T03:35:46;12.70;99.90
5286;DHT22;2665;53.112;7.358;2022-07-23T03:38:12;12.60;99.90
5286;DHT22;2665;53.112;7.358;2022-07-23T03:40:38;12.60;1.00
5286;DHT22;2665;53.112;7.358;2022-07-23T03:43:04;12.60;1.00
5286;DHT22;2665;53.112;7.358;2022-07-23T03:45:30;12.50;1.00
5286;DHT22;2665;53.112;7.358;2022-07-23T03:47:56;12.50;1.00
5286;DHT22;2665;53.112;7.358;2022-07-23T03:50:21;12.50;1.00
5286;DHT22;2665;53.112;7.358;2022-07-23T03:52:47;12.40;1.00
5286;DHT22;2665;53.112;7.358;2022-07-23T03:55:13;12.40;1.50
5286;DHT22;2665;53.112;7.358;2022-07-23T03:57:39;12.40;99.90
5286;DHT22;2665;53.112;7.358;2022-07-23T04:00:06;12.40;99.90
5286;DHT22;2665;53.112;7.358;2022-07-23T04:02:33;12.40;99.90
5286;DHT22;2665;53.112;7.358;2022-07-23T04:04:59;12.40;1.00
5286;DHT22;2665;53.112;7.358;2022-07-23T04:07:26;12.30;99.90
5286;DHT22;2665;53.112;7.358;2022-07-23T04:09:51;12.30;99.90
5286;DHT22;2665;53.112;7.358;2022-07-23T04:12:17;12.30;1.00
5286;DHT22;2665;53.112;7.358;2022-07-23T04:14:43;12.30;1.00
5286;DHT22;2665;53.112;7.358;2022-07-23T04:17:08;12.20;1.00
5286;DHT22;2665;53.112;7.358;2022-07-23T04:19:34;12.20;1.00
5286;DHT22;2665;53.112;7.358;2022-07-23T04:22:05;12.20;1.00
5286;DHT22;2665;53.112;7.358;2022-07-23T04:24:31;12.20;99.90
5286;DHT22;2665;53.112;7.358;2022-07-23T04:26:56;12.20;99.90
5286;DHT22;2665;53.112;7.358;2022-07-23T04:29:22;12.30;99.90
5286;DHT22;2665;53.112;7.358;2022-07-23T04:31:47;12.20;99.90
5286;DHT22;2665;53.112;7.358;2022-07-23T04:34:13;12.30;99.90
5286;DHT22;2665;53.112;7.358;2022-07-23T04:36:38;12.30;99.90
5286;DHT22;2665;53.112;7.358;2022-07-23T04:39:04;12.30;99.90
5286;DHT22;2665;53.112;7.358;2022-07-23T04:41:30;12.40;99.90
5286;DHT22;2665;53.112;7.358;2022-07-23T04:43:55;12.40;99.90
5286;DHT22;2665;53.112;7.358;2022-07-23T04:46:21;12.50;99.90
5286;DHT22;2665;53.112;7.358;2022-07-23T04:48:47;12.50;99.90
5286;DHT22;2665;53.112;7.358;2022-07-23T04:51:12;12.60;99.90
5286;DHT22;2665;53.112;7.358;2022-07-23T04:53:38;12.60;1.00
5286;DHT22;2665;53.112;7.358;2022-07-23T04:56:04;12.60;1.00
5286;DHT22;2665;53.112;7.358;2022-07-23T04:58:30;12.70;1.00
5286;DHT22;2665;53.112;7.358;2022-07-23T05:00:57;12.70;1.00
5286;DHT22;2665;53.112;7.358;2022-07-23T05:03:23;12.70;1.00
5286;DHT22;2665;53.112;7.358;2022-07-23T05:05:49;12.70;1.00
5286;DHT22;2665;53.112;7.358;2022-07-23T05:08:15;12.70;1.00
5286;DHT22;2665;53.112;7.358;2022-07-23T05:10:40;12.70;1.00
5286;DHT22;2665;53.112;7.358;2022-07-23T05:13:06;12.70;1.00
5286;DHT22;2665;53.112;7.358;2022-07-23T05:15:31;12.80;1.00
5286;DHT22;2665;53.112;7.358;2022-07-23T05:17:57;12.80;1.00
5286;DHT22;2665;53.112;7.358;2022-07-23T05:20:23;12.90;1.00
5286;DHT22;2665;53.112;7.358;2022-07-23T05:22:48;12.90;1.00
5286;DHT22;2665;53.112;7.358;2022-07-23T05:25:14;13.00;99.90
5286;DHT22;2665;53.112;7.358;2022-07-23T05:27:39;13.10;99.90
5286;DHT22;2665;53.112;7.358;2022-07-23T05:30:05;13.10;99.90
5286;DHT22;2665;53.112;7.358;2022-07-23T05:32:32;13.20;1.00
5286;DHT22;2665;53.112;7.358;2022-07-23T05:34:58;13.30;28.20
5286;DHT22;2665;53.112;7.358;2022-07-23T05:37:23;13.40;1.00
5286;DHT22;2665;53.112;7.358;2022-07-23T05:39:49;13.50;1.00
5286;DHT22;2665;53.112;7.358;2022-07-23T05:42:15;13.60;99.90
5286;DHT22;2665;53.112;7.358;2022-07-23T05:44:40;13.70;1.00
5286;DHT22;2665;53.112;7.358;2022-07-23T05:47:06;13.70;99.90
5286;DHT22;2665;53.112;7.358;2022-07-23T05:49:31;13.80;1.00
5286;DHT22;2665;53.112;7.358;2022-07-23T05:51:57;13.80;99.90
5286;DHT22;2665;53.112;7.358;2022-07-23T05:54:22;13.90;99.90
5286;DHT22;2665;53.112;7.358;2022-07-23T05:56:48;14.00;99.90
5286;DHT22;2665;53.112;7.358;2022-07-23T05:59:15;14.10;99.90
5286;DHT22;2665;53.112;7.358;2022-07-23T06:01:41;14.20;1.00
5286;DHT22;2665;53.112;7.358;2022-07-23T06:04:07;14.40;1.00
5286;DHT22;2665;53.112;7.358;2022-07-23T06:06:32;14.40;1.00
5286;DHT22;2665;53.112;7.358;2022-07-23T06:08:58;14.50;99.90
5286;DHT22;2665;53.112;7.358;2022-07-23T06:11:24;14.60;1.00
5286;DHT22;2665;53.112;7.358;2022-07-23T06:13:49;14.70;1.00
5286;DHT22;2665;53.112;7.358;2022-07-23T06:16:15;14.70;99.90
5286;DHT22;2665;53.112;7.358;2022-07-23T06:18:41;14.80;99.90
5286;DHT22;2665;53.112;7.358;2022-07-23T06:21:06;14.80;99.90
5286;DHT22;2665;53.112;7.358;2022-07-23T06:23:32;14.90;99.90
5286;DHT22;2665;53.112;7.358;2022-07-23T06:25:57;14.90;1.00
5286;DHT22;2665;53.112;7.358;2022-07-23T06:28:23;14.90;1.00
5286;DHT22;2665;53.112;7.358;2022-07-23T06:30:48;15.00;1.00
5286;DHT22;2665;53.112;7.358;2022-07-23T06:33:14;15.00;1.00
5286;DHT22;2665;53.112;7.358;2022-07-23T06:35:40;15.10;99.90
5286;DHT22;2665;53.112;7.358;2022-07-23T06:38:05;15.10;99.90
5286;DHT22;2665;53.112;7.358;2022-07-23T06:40:31;15.20;99.90
5286;DHT22;2665;53.112;7.358;2022-07-23T06:42:56;15.30;99.90
5286;DHT22;2665;53.112;7.358;2022-07-23T06:45:22;15.40;99.90
5286;DHT22;2665;53.112;7.358;2022-07-23T06:47:48;15.50;99.90
5286;DHT22;2665;53.112;7.358;2022-07-23T06:50:13;15.60;99.90
5286;DHT22;2665;53.112;7.358;2022-07-23T06:52:39;15.60;1.00
5286;DHT22;2665;53.112;7.358;2022-07-23T06:55:05;15.60;1.00
5286;DHT22;2665;53.112;7.358;2022-07-23T06:57:31;15.70;99.90
5286;DHT22;2665;53.112;7.358;2022-07-23T06:59:56;15.70;99.90
5286;DHT22;2665;53.112;7.358;2022-07-23T07:02:22;15.80;1.00
5286;DHT22;2665;53.112;7.358;2022-07-23T07:04:48;15.90;99.90
5286;DHT22;2665;53.112;7.358;2022-07-23T07:07:14;15.90;99.90
5286;DHT22;2665;53.112;7.358;2022-07-23T07:09:39;16.00;1.00
5286;DHT22;2665;53.112;7.358;2022-07-23T07:12:05;16.00;1.00
5286;DHT22;2665;53.112;7.358;2022-07-23T07:14:31;16.10;1.00
5286;DHT22;2665;53.112;7.358;2022-07-23T07:16:56;16.10;1.00
5286;DHT22;2665;53.112;7.358;2022-07-23T07:19:22;16.20;1.00
5286;DHT22;2665;53.112;7.358;2022-07-23T07:21:47;16.30;1.00
5286;DHT22;2665;53.112;7.358;2022-07-23T07:24:13;16.30;99.90
5286;DHT22;2665;53.112;7.358;2022-07-23T07:26:39;16.30;99.90
5286;DHT22;2665;53.112;7.358;2022-07-23T07:29:05;16.40;99.90
5286;DHT22;2665;53.112;7.358;2022-07-23T07:31:31;16.40;1.00
5286;DHT22;2665;53.112;7.358;2022-07-23T07:33:58;16.50;1.00
5286;DHT22;2665;53.112;7.358;2022-07-23T07:36:24;16.60;42.10
5286;DHT22;2665;53.112;7.358;2022-07-23T07:38:50;16.80;1.00
5286;DHT22;2665;53.112;7.358;2022-07-23T07:41:16;17.00;1.00
5286;DHT22;2665;53.112;7.358;2022-07-23T07:43:42;17.20;1.00
5286;DHT22;2665;53.112;7.358;2022-07-23T07:46:07;17.40;1.00
5286;DHT22;2665;53.112;7.358;2022-07-23T07:48:37;17.50;99.90
5286;DHT22;2665;53.112;7.358;2022-07-23T07:51:03;17.50;99.90
5286;DHT22;2665;53.112;7.358;2022-07-23T07:53:29;17.60;1.00
5286;DHT22;2665;53.112;7.358;2022-07-23T07:55:55;17.60;1.00
5286;DHT22;2665;53.112;7.358;2022-07-23T07:58:21;17.70;1.00
5286;DHT22;2665;53.112;7.358;2022-07-23T08:00:46;17.70;99.90
5286;DHT22;2665;53.112;7.358;2022-07-23T08:03:12;17.70;99.90
5286;DHT22;2665;53.112;7.358;2022-07-23T08:05:37;17.70;99.90
5286;DHT22;2665;53.112;7.358;2022-07-23T08:08:03;17.60;1.00
5286;DHT22;2665;53.112;7.358;2022-07-23T08:10:29;17.70;1.00
5286;DHT22;2665;53.112;7.358;2022-07-23T08:12:57;17.80;1.00
5286;DHT22;2665;53.112;7.358;2022-07-23T08:15:24;17.90;1.00
5286;DHT22;2665;53.112;7.358;2022-07-23T08:17:50;18.00;1.00
5286;DHT22;2665;53.112;7.358;2022-07-23T08:20:17;18.10;1.00
5286;DHT22;2665;53.112;7.358;2022-07-23T08:22:54;18.20;1.00
5286;DHT22;2665;53.112;7.358;2022-07-23T08:25:28;18.40;1.00
5286;DHT22;2665;53.112;7.358;2022-07-23T08:27:54;18.40;1.00
5286;DHT22;2665;53.112;7.358;2022-07-23T08:30:21;18.50;99.90
5286;DHT22;2665;53.112;7.358;2022-07-23T08:33:04;18.50;1.00
5286;DHT22;2665;53.112;7.358;2022-07-23T08:35:34;18.40;99.90
5286;DHT22;2665;53.112;7.358;2022-07-23T08:38:02;18.50;99.90
5286;DHT22;2665;53.112;7.358;2022-07-23T08:40:30;18.40;99.90
5286;DHT22;2665;53.112;7.358;2022-07-23T08:42:56;18.30;99.90
5286;DHT22;2665;53.112;7.358;2022-07-23T08:45:24;18.20;99.90
5286;DHT22;2665;53.112;7.358;2022-07-23T08:47:55;18.30;99.90
5286;DHT22;2665;53.112;7.358;2022-07-23T08:50:22;18.20;99.90
5286;DHT22;2665;53.112;7.358;2022-07-23T08:52:50;18.20;99.90
5286;DHT22;2665;53.112;7.358;2022-07-23T08:55:21;18.10;99.90
5286;DHT22;2665;53.112;7.358;2022-07-23T08:57:48;18.00;99.90
5286;DHT22;2665;53.112;7.358;2022-07-23T09:00:15;18.00;99.90
5286;DHT22;2665;53.112;7.358;2022-07-23T09:02:43;18.10;99.90
5286;DHT22;2665;53.112;7.358;2022-07-23T09:05:13;18.10;99.90
5286;DHT22;2665;53.112;7.358;2022-07-23T09:08:09;18.20;99.90
5286;DHT22;2665;53.112;7.358;2022-07-23T09:10:59;18.20;99.90
5286;DHT22;2665;53.112;7.358;2022-07-23T09:13:26;18.20;99.90
5286;DHT22;2665;53.112;7.358;2022-07-23T09:15:54;18.30;99.90
5286;DHT22;2665;53.112;7.358;2022-07-23T09:18:27;18.50;99.90
5286;DHT22;2665;53.112;7.358;2022-07-23T09:21:26;18.70;99.90
5286;DHT22;2665;53.112;7.358;2022-07-23T09:24:02;18.90;99.90
5286;DHT22;2665;53.112;7.358;2022-07-23T09:26:34;19.10;99.90
5286;DHT22;2665;53.112;7.358;2022-07-23T09:31:46;19.10;49.60
5286;DHT22;2665;53.112;7.358;2022-07-23T09:36:49;19.10;51.10
5286;DHT22;2665;53.112;7.358;2022-07-23T09:39:16;19.10;1.00
5286;DHT22;2665;53.112;7.358;2022-07-23T09:41:47;19.10;9.50
5286;DHT22;2665;53.112;7.358;2022-07-23T09:44:18;19.20;1.00
5286;DHT22;2665;53.112;7.358;2022-07-23T09:46:49;19.70;1.00
5286;DHT22;2665;53.112;7.358;2022-07-23T09:49:20;19.70;1.00
5286;DHT22;2665;53.112;7.358;2022-07-23T09:51:58;19.90;1.00
5286;DHT22;2665;53.112;7.358;2022-07-23T09:56:54;19.70;1.00
5286;DHT22;2665;53.112;7.358;2022-07-23T09:59:24;19.70;1.00
5286;DHT22;2665;53.112;7.358;2022-07-23T10:01:52;19.70;1.00
5286;DHT22;2665;53.112;7.358;2022-07-23T10:04:20;19.90;1.00
5286;DHT22;2665;53.112;7.358;2022-07-23T10:06:46;20.00;1.00
5286;DHT22;2665;53.112;7.358;2022-07-23T10:09:13;20.00;1.00
5286;DHT22;2665;53.112;7.358;2022-07-23T10:11:42;20.00;1.00
5286;DHT22;2665;53.112;7.358;2022-07-23T10:14:08;19.90;1.00
5286;DHT22;2665;53.112;7.358;2022-07-23T10:16:33;19.90;1.00
5286;DHT22;2665;53.112;7.358;2022-07-23T10:18:59;19.70;1.00
5286;DHT22;2665;53.112;7.358;2022-07-23T10:24:18;19.90;1.00
5286;DHT22;2665;53.112;7.358;2022-07-23T10:32:17;20.10;1.00
5286;DHT22;2665;53.112;7.358;2022-07-23T10:34:58;20.20;1.00
5286;DHT22;2665;53.112;7.358;2022-07-23T10:37:34;20.20;1.00
5286;DHT22;2665;53.112;7.358;2022-07-23T10:40:13;20.10;1.00
5286;DHT22;2665;53.112;7.358;2022-07-23T10:42:39;20.10;1.00
5286;DHT22;2665;53.112;7.358;2022-07-23T10:47:53;20.20;1.00
5286;DHT22;2665;53.112;7.358;2022-07-23T10:50:29;20.30;1.00
5286;DHT22;2665;53.112;7.358;2022-07-23T10:58:04;20.70;1.00
5286;DHT22;2665;53.112;7.358;2022-07-23T11:00:32;20.80;1.00
5286;DHT22;2665;53.112;7.358;2022-07-23T11:03:03;20.80;1.00
5286;DHT22;2665;53.112;7.358;2022-07-23T11:05:42;20.80;1.00
5286;DHT22;2665;53.112;7.358;2022-07-23T11:10:49;21.00;1.00
5286;DHT22;2665;53.112;7.358;2022-07-23T11:24:06;21.20;1.00
5286;DHT22;2665;53.112;7.358;2022-07-23T11:41:53;22.10;1.00
5286;DHT22;2665;53.112;7.358;2022-07-23T11:46:58;21.70;1.00
5286;DHT22;2665;53.112;7.358;2022-07-23T11:49:25;21.30;1.00
5286;DHT22;2665;53.112;7.358;2022-07-23T11:52:10;21.30;1.00
5286;DHT22;2665;53.112;7.358;2022-07-23T11:54:54;21.60;1.00
5286;DHT22;2665;53.112;7.358;2022-07-23T11:57:23;22.60;1.00
5286;DHT22;2665;53.112;7.358;2022-07-23T11:59:53;23.90;1.00
5286;DHT22;2665;53.112;7.358;2022-07-23T12:02:20;24.40;1.00
5286;DHT22;2665;53.112;7.358;2022-07-23T12:04:49;23.80;1.00
5286;DHT22;2665;53.112;7.358;2022-07-23T12:07:29;23.60;1.00
5286;DHT22;2665;53.112;7.358;2022-07-23T12:09:57;23.30;1.00
5286;DHT22;2665;53.112;7.358;2022-07-23T12:12:23;23.20;1.00
5286;DHT22;2665;53.112;7.358;2022-07-23T12:14:54;23.90;1.00
5286;DHT22;2665;53.112;7.358;2022-07-23T12:17:24;25.10;1.00
5286;DHT22;2665;53.112;7.358;2022-07-23T12:19:52;25.20;1.00
5286;DHT22;2665;53.112;7.358;2022-07-23T12:22:17;24.60;1.00
5286;DHT22;2665;53.112;7.358;2022-07-23T12:24:57;24.60;1.00
5286;DHT22;2665;53.112;7.358;2022-07-23T12:27:24;24.60;1.00
5286;DHT22;2665;53.112;7.358;2022-07-23T12:29:49;24.80;1.00
5286;DHT22;2665;53.112;7.358;2022-07-23T12:32:27;24.80;1.00
5286;DHT22;2665;53.112;7.358;2022-07-23T12:37:34;23.60;1.00
5286;DHT22;2665;53.112;7.358;2022-07-23T12:40:29;22.90;1.00
5286;DHT22;2665;53.112;7.358;2022-07-23T12:42:59;22.50;1.00
5286;DHT22;2665;53.112;7.358;2022-07-23T12:45:27;22.10;1.00
5286;DHT22;2665;53.112;7.358;2022-07-23T12:48:05;21.90;1.00
5286;DHT22;2665;53.112;7.358;2022-07-23T12:50:39;21.80;1.00
5286;DHT22;2665;53.112;7.358;2022-07-23T12:53:14;21.90;1.00
5286;DHT22;2665;53.112;7.358;2022-07-23T12:55:42;21.90;1.00
5286;DHT22;2665;53.112;7.358;2022-07-23T12:58:09;21.60;1.00
5286;DHT22;2665;53.112;7.358;2022-07-23T13:03:44;21.60;1.00
5286;DHT22;2665;53.112;7.358;2022-07-23T13:06:19;21.70;1.00
5286;DHT22;2665;53.112;7.358;2022-07-23T13:08:45;21.80;1.00
5286;DHT22;2665;53.112;7.358;2022-07-23T13:11:10;21.70;1.00
5286;DHT22;2665;53.112;7.358;2022-07-23T13:13:36;22.00;1.00
5286;DHT22;2665;53.112;7.358;2022-07-23T13:16:02;21.80;1.00
5286;DHT22;2665;53.112;7.358;2022-07-23T13:18:28;21.90;1.00
5286;DHT22;2665;53.112;7.358;2022-07-23T13:20:54;22.60;1.00
5286;DHT22;2665;53.112;7.358;2022-07-23T13:23:21;22.80;1.00
5286;DHT22;2665;53.112;7.358;2022-07-23T13:25:47;23.00;1.00
5286;DHT22;2665;53.112;7.358;2022-07-23T13:28:14;23.90;1.00
5286;DHT22;2665;53.112;7.358;2022-07-23T13:30:41;24.30;1.00
5286;DHT22;2665;53.112;7.358;2022-07-23T13:33:07;24.50;1.00
5286;DHT22;2665;53.112;7.358;2022-07-23T13:35:35;25.10;1.00
5286;DHT22;2665;53.112;7.358;2022-07-23T13:38:02;25.00;1.00
5286;DHT22;2665;53.112;7.358;2022-07-23T13:40:28;24.80;1.00
5286;DHT22;2665;53.112;7.358;2022-07-23T13:42:53;24.70;1.00
5286;DHT22;2665;53.112;7.358;2022-07-23T13:45:19;24.20;1.00
5286;DHT22;2665;53.112;7.358;2022-07-23T13:47:45;24.20;1.00
5286;DHT22;2665;53.112;7.358;2022-07-23T13:50:11;24.50;1.00
5286;DHT22;2665;53.112;7.358;2022-07-23T13:52:36;24.40;1.00
5286;DHT22;2665;53.112;7.358;2022-07-23T13:55:04;24.20;1.00
5286;DHT22;2665;53.112;7.358;2022-07-23T13:57:31;24.40;1.00
5286;DHT22;2665;53.112;7.358;2022-07-23T13:59:57;24.40;1.00
5286;DHT22;2665;53.112;7.358;2022-07-23T14:02:22;24.30;1.00
5286;DHT22;2665;53.112;7.358;2022-07-23T14:04:49;24.10;1.00
5286;DHT22;2665;53.112;7.358;2022-07-23T14:07:15;24.50;1.00
5286;DHT22;2665;53.112;7.358;2022-07-23T14:09:41;24.80;1.00
5286;DHT22;2665;53.112;7.358;2022-07-23T14:12:07;25.50;1.00
5286;DHT22;2665;53.112;7.358;2022-07-23T14:14:33;25.60;1.00
5286;DHT22;2665;53.112;7.358;2022-07-23T14:16:59;25.20;1.00
5286;DHT22;2665;53.112;7.358;2022-07-23T14:19:24;24.80;1.00
5286;DHT22;2665;53.112;7.358;2022-07-23T14:21:50;24.50;1.00
5286;DHT22;2665;53.112;7.358;2022-07-23T14:24:16;25.20;1.00
5286;DHT22;2665;53.112;7.358;2022-07-23T14:26:41;25.90;1.00
5286;DHT22;2665;53.112;7.358;2022-07-23T14:29:07;26.50;1.00
5286;DHT22;2665;53.112;7.358;2022-07-23T14:31:34;27.00;1.00
5286;DHT22;2665;53.112;7.358;2022-07-23T14:34:00;28.00;1.00
5286;DHT22;2665;53.112;7.358;2022-07-23T14:36:26;28.20;1.00
5286;DHT22;2665;53.112;7.358;2022-07-23T14:38:51;28.50;1.00
5286;DHT22;2665;53.112;7.358;2022-07-23T14:41:17;29.00;1.00
5286;DHT22;2665;53.112;7.358;2022-07-23T14:43:43;29.60;1.00
5286;DHT22;2665;53.112;7.358;2022-07-23T14:46:10;30.10;1.00
5286;DHT22;2665;53.112;7.358;2022-07-23T14:48:37;30.30;1.00
5286;DHT22;2665;53.112;7.358;2022-07-23T14:51:03;30.30;1.00
5286;DHT22;2665;53.112;7.358;2022-07-23T14:53:29;30.40;1.00
5286;DHT22;2665;53.112;7.358;2022-07-23T14:55:55;30.30;1.00
5286;DHT22;2665;53.112;7.358;2022-07-23T14:58:22;29.90;1.00
5286;DHT22;2665;53.112;7.358;2022-07-23T15:00:48;29.60;1.00
5286;DHT22;2665;53.112;7.358;2022-07-23T15:03:14;30.00;1.00
5286;DHT22;2665;53.112;7.358;2022-07-23T15:05:39;30.20;1.00
5286;DHT22;2665;53.112;7.358;2022-07-23T15:08:05;30.20;1.00
5286;DHT22;2665;53.112;7.358;2022-07-23T15:10:31;30.70;1.00
5286;DHT22;2665;53.112;7.358;2022-07-23T15:12:56;30.90;1.00
5286;DHT22;2665;53.112;7.358;2022-07-23T15:15:22;30.60;1.00
5286;DHT22;2665;53.112;7.358;2022-07-23T15:17:47;30.50;1.00
5286;DHT22;2665;53.112;7.358;2022-07-23T15:20:13;30.30;1.00
5286;DHT22;2665;53.112;7.358;2022-07-23T15:22:39;30.10;1.00
5286;DHT22;2665;53.112;7.358;2022-07-23T15:25:05;29.40;1.00
5286;DHT22;2665;53.112;7.358;2022-07-23T15:27:31;27.80;1.00
5286;DHT22;2665;53.112;7.358;2022-07-23T15:29:57;27.40;1.00
5286;DHT22;2665;53.112;7.358;2022-07-23T15:32:22;26.50;1.00
5286;DHT22;2665;53.112;7.358;2022-07-23T15:34:52;27.00;1.00
5286;DHT22;2665;53.112;7.358;2022-07-23T15:37:17;27.00;1.00
5286;DHT22;2665;53.112;7.358;2022-07-23T15:39:43;26.60;1.00
5286;DHT22;2665;53.112;7.358;2022-07-23T15:42:08;27.10;1.00
5286;DHT22;2665;53.112;7.358;2022-07-23T15:44:34;27.60;1.00
5286;DHT22;2665;53.112;7.358;2022-07-23T15:46:59;28.50;1.00
5286;DHT22;2665;53.112;7.358;2022-07-23T15:49:27;28.50;1.00
5286;DHT22;2665;53.112;7.358;2022-07-23T15:51:53;28.00;1.00
5286;DHT22;2665;53.112;7.358;2022-07-23T15:54:20;28.90;1.00
5286;DHT22;2665;53.112;7.358;2022-07-23T15:56:46;29.80;1.00
5286;DHT22;2665;53.112;7.358;2022-07-23T15:59:11;30.20;1.00
5286;DHT22;2665;53.112;7.358;2022-07-23T16:01:37;30.70;1.00
5286;DHT22;2665;53.112;7.358;2022-07-23T16:04:03;30.70;1.00
5286;DHT22;2665;53.112;7.358;2022-07-23T16:06:28;30.20;1.00
5286;DHT22;2665;53.112;7.358;2022-07-23T16:08:54;29.80;1.00
5286;DHT22;2665;53.112;7.358;2022-07-23T16:11:20;29.80;1.00
5286;DHT22;2665;53.112;7.358;2022-07-23T16:13:45;30.20;1.00
5286;DHT22;2665;53.112;7.358;2022-07-23T16:16:11;29.80;1.00
5286;DHT22;2665;53.112;7.358;2022-07-23T16:18:38;29.40;1.00
5286;DHT22;2665;53.112;7.358;2022-07-23T16:21:04;29.80;1.00
5286;DHT22;2665;53.112;7.358;2022-07-23T16:23:30;30.30;1.00
5286;DHT22;2665;53.112;7.358;2022-07-23T16:25:56;30.70;1.00
5286;DHT22;2665;53.112;7.358;2022-07-23T16:28:21;30.30;1.00
5286;DHT22;2665;53.112;7.358;2022-07-23T16:30:47;30.40;1.00
5286;DHT22;2665;53.112;7.358;2022-07-23T16:33:13;30.50;1.00
5286;DHT22;2665;53.112;7.358;2022-07-23T16:35:38;30.70;1.00
5286;DHT22;2665;53.112;7.358;2022-07-23T16:38:05;30.50;1.00
5286;DHT22;2665;53.112;7.358;2022-07-23T16:40:31;30.60;1.00
5286;DHT22;2665;53.112;7.358;2022-07-23T16:42:58;30.70;1.00
5286;DHT22;2665;53.112;7.358;2022-07-23T16:45:24;30.80;1.00
5286;DHT22;2665;53.112;7.358;2022-07-23T16:47:50;30.80;1.00
5286;DHT22;2665;53.112;7.358;2022-07-23T16:50:16;30.80;1.00
5286;DHT22;2665;53.112;7.358;2022-07-23T16:52:42;30.70;1.00
5286;DHT22;2665;53.112;7.358;2022-07-23T16:55:08;30.50;1.00
5286;DHT22;2665;53.112;7.358;2022-07-23T16:57:33;30.60;1.00
5286;DHT22;2665;53.112;7.358;2022-07-23T16:59:59;30.70;1.00
5286;DHT22;2665;53.112;7.358;2022-07-23T17:02:25;30.40;1.00
5286;DHT22;2665;53.112;7.358;2022-07-23T17:04:51;30.20;1.00
5286;DHT22;2665;53.112;7.358;2022-07-23T17:07:18;30.00;1.00
5286;DHT22;2665;53.112;7.358;2022-07-23T17:09:43;30.00;1.00
5286;DHT22;2665;53.112;7.358;2022-07-23T17:12:09;30.20;1.00